Time;durP1;ratioP1;P1;durP2;ratioP2;P2;SDS_P1;SDS_P2;PMS_P1;PMS_P2;Temp;Humidity;BMP_temperature;BMP_pressure;BME280_temperature;BME280_humidity;BME280_pressure;Samples;Min_cycle;Max_cycle;Signal;HPM_P1;HPM_P2
2021/03/27 00:00:57;;;;;;;8.80;5.13;;;13.50;91.70;;;;;;5093978;28;20139;-76
2021/03/27 00:03:30;;;;;;;8.60;5.50;;;13.50;92.50;;;;;;5072553;28;20117;-76
2021/03/27 00:06:04;;;;;;;10.20;4.95;;;13.50;92.00;;;;;;5090584;28;20058;-75
2021/03/27 00:08:50;;;;;;;8.77;4.78;;;13.20;92.80;;;;;;5089449;28;20048;-76
2021/03/27 00:11:25;;;;;;;11.43;5.00;;;13.20;93.60;;;;;;5090411;28;20094;-76
2021/03/27 00:14:00;;;;;;;8.65;5.13;;;13.10;93.70;;;;;;5090143;28;20044;-76
2021/03/27 00:16:36;;;;;;;8.95;5.28;;;13.10;94.00;;;;;;5071975;28;20135;-75
2021/03/27 00:19:09;;;;;;;7.57;5.10;;;13.00;94.90;;;;;;5069883;28;20123;-75
2021/03/27 00:21:43;;;;;;;8.57;4.22;;;13.00;95.40;;;;;;5071964;28;20139;-76
2021/03/27 00:24:16;;;;;;;6.57;4.35;;;12.90;95.20;;;;;;5072709;28;20136;-75
2021/03/27 00:26:47;;;;;;;7.28;4.35;;;12.60;95.70;;;;;;5074334;28;20132;-75
2021/03/27 00:29:21;;;;;;;8.10;4.10;;;12.50;96.00;;;;;;5092868;28;20162;-75
2021/03/27 00:31:52;;;;;;;6.00;3.67;;;12.40;96.30;;;;;;5092584;28;20139;-75
2021/03/27 00:34:26;;;;;;;6.05;3.40;;;12.40;96.40;;;;;;5092953;28;20139;-75
2021/03/27 00:36:57;;;;;;;6.85;3.70;;;12.40;96.10;;;;;;5074029;28;20127;-75
2021/03/27 00:39:38;;;;;;;5.40;3.25;;;12.30;96.30;;;;;;5093093;28;20127;-75
2021/03/27 00:42:11;;;;;;;5.60;3.75;;;12.30;96.40;;;;;;5074771;28;20540;-75
2021/03/27 00:44:42;;;;;;;6.60;2.70;;;12.20;96.10;;;;;;5092567;28;20127;-76
2021/03/27 00:47:15;;;;;;;5.60;2.72;;;12.20;96.30;;;;;;5092544;28;20480;-77
2021/03/27 00:49:48;;;;;;;5.65;2.60;;;12.30;95.90;;;;;;5092904;28;20136;-76
2021/03/27 00:52:17;;;;;;;4.30;2.50;;;12.20;95.90;;;;;;5092512;28;20135;-76
2021/03/27 00:54:47;;;;;;;4.05;2.22;;;12.20;95.70;;;;;;5095108;28;20135;-75
2021/03/27 00:57:19;;;;;;;4.22;2.30;;;12.00;95.80;;;;;;5096500;28;20066;-75
2021/03/27 01:00:05;;;;;;;4.20;2.47;;;12.20;95.30;;;;;;5096473;28;20125;-76
2021/03/27 01:02:32;;;;;;;4.70;2.28;;;12.10;95.60;;;;;;5096241;28;20131;-74
2021/03/27 01:05:04;;;;;;;5.00;2.45;;;12.10;95.40;;;;;;5095648;28;20131;-75
2021/03/27 01:07:31;;;;;;;4.60;2.00;;;12.10;95.10;;;;;;5095998;28;20127;-75
2021/03/27 01:10:06;;;;;;;4.07;2.10;;;12.00;95.20;;;;;;5096265;28;20557;-75
2021/03/27 01:12:36;;;;;;;3.80;2.08;;;12.10;95.10;;;;;;5096182;28;20190;-75
2021/03/27 01:15:10;;;;;;;3.88;2.13;;;12.10;94.80;;;;;;5096255;28;20044;-75
2021/03/27 01:17:42;;;;;;;3.70;1.98;;;12.10;94.70;;;;;;5102443;28;20082;-75
2021/03/27 01:20:17;;;;;;;3.38;1.70;;;12.10;94.70;;;;;;5084740;28;20082;-75
2021/03/27 01:22:45;;;;;;;;;;;12.10;94.80;;;;;;5096809;28;22010;-76
2021/03/27 01:25:13;;;;;;;4.07;1.83;;;12.10;94.40;;;;;;5095888;28;20366;-76
2021/03/27 01:27:51;;;;;;;3.13;1.58;;;12.10;94.00;;;;;;5095897;28;20130;-76
2021/03/27 01:30:26;;;;;;;3.08;1.80;;;12.20;94.10;;;;;;5094975;28;20131;-75
2021/03/27 01:32:56;;;;;;;3.40;1.92;;;12.20;93.80;;;;;;5095889;28;20135;-76
2021/03/27 01:35:31;;;;;;;3.22;1.80;;;12.20;93.40;;;;;;5095645;28;20127;-76
2021/03/27 01:38:08;;;;;;;4.10;1.75;;;12.20;93.60;;;;;;5095474;28;20123;-75
2021/03/27 01:40:48;;;;;;;3.63;1.85;;;12.20;93.80;;;;;;5095783;28;20564;-76
2021/03/27 01:43:28;;;;;;;3.20;1.77;;;12.20;93.70;;;;;;5078147;28;20047;-75
2021/03/27 01:46:31;;;;;;;3.40;1.80;;;12.30;93.60;;;;;;5095191;28;20072;-75
2021/03/27 01:49:18;;;;;;;4.00;1.92;;;12.10;93.60;;;;;;5095436;28;20098;-76
2021/03/27 01:52:29;;;;;;;3.55;2.00;;;12.30;93.70;;;;;;5077819;28;20055;-76
2021/03/27 01:55:13;;;;;;;3.80;1.70;;;12.30;94.10;;;;;;5078956;28;20123;-76
2021/03/27 01:57:49;;;;;;;3.17;1.70;;;12.30;94.80;;;;;;5095110;28;20081;-76
2021/03/27 02:00:21;;;;;;;3.40;1.90;;;12.20;94.80;;;;;;5095214;28;20130;-75
2021/03/27 02:02:57;;;;;;;4.07;2.00;;;12.10;95.10;;;;;;5095062;28;20056;-75
2021/03/27 02:05:31;;;;;;;4.88;1.80;;;12.10;95.70;;;;;;5095096;28;20044;-75
2021/03/27 02:08:08;;;;;;;3.83;1.98;;;12.10;96.00;;;;;;5094948;28;20044;-76
2021/03/27 02:10:45;;;;;;;5.80;2.30;;;12.00;96.40;;;;;;5095149;28;20135;-76
2021/03/27 02:13:22;;;;;;;4.57;2.17;;;12.00;96.40;;;;;;5094400;28;20135;-76
2021/03/27 02:15:59;;;;;;;3.97;2.15;;;12.10;96.80;;;;;;5095016;28;20134;-76
2021/03/27 02:18:36;;;;;;;4.20;2.35;;;11.90;97.30;;;;;;5094749;28;20128;-75
2021/03/27 02:21:50;;;;;;;3.78;2.30;;;11.80;97.40;;;;;;5094912;28;20134;-75
2021/03/27 02:24:56;;;;;;;3.88;2.35;;;11.80;97.60;;;;;;5076633;28;20044;-75
2021/03/27 02:27:29;;;;;;;4.25;2.25;;;11.70;97.90;;;;;;5094619;28;20044;-75
2021/03/27 02:30:13;;;;;;;3.90;2.28;;;11.70;98.20;;;;;;5094663;28;20076;-75
2021/03/27 02:33:08;;;;;;;4.70;2.17;;;11.70;98.20;;;;;;5076736;28;20131;-75
2021/03/27 02:35:48;;;;;;;4.38;2.40;;;11.70;98.40;;;;;;5094651;28;20052;-76
2021/03/27 02:38:27;;;;;;;4.28;2.30;;;11.70;98.40;;;;;;5094522;28;20059;-76
2021/03/27 02:41:05;;;;;;;4.70;2.70;;;11.60;98.60;;;;;;5094221;28;20106;-76
2021/03/27 02:43:40;;;;;;;4.78;2.70;;;11.70;98.80;;;;;;5094446;28;20048;-75
2021/03/27 02:46:14;;;;;;;5.82;3.05;;;11.60;98.70;;;;;;5076124;28;20474;-75
2021/03/27 02:48:48;;;;;;;4.53;2.85;;;11.70;99.10;;;;;;5094247;28;20060;-75
2021/03/27 02:51:24;;;;;;;5.57;2.95;;;11.50;99.30;;;;;;5076305;28;20135;-75
2021/03/27 02:54:07;;;;;;;6.18;2.90;;;11.40;99.80;;;;;;5076048;28;20048;-75
2021/03/27 02:56:49;;;;;;;6.43;3.40;;;11.30;99.90;;;;;;5093880;28;20578;-76
2021/03/27 02:59:38;;;;;;;6.93;3.22;;;11.30;99.90;;;;;;5094230;28;20371;-75
2021/03/27 03:02:18;;;;;;;4.95;2.85;;;11.20;99.90;;;;;;5092874;28;20105;-75
2021/03/27 03:04:54;;;;;;;4.60;2.25;;;11.10;99.90;;;;;;5072045;28;20082;-75
2021/03/27 03:07:27;;;;;;;3.88;2.10;;;11.10;99.90;;;;;;5063990;28;20131;-76
2021/03/27 03:10:09;;;;;;;3.28;1.77;;;10.90;99.90;;;;;;5091410;28;20210;-75
2021/03/27 03:12:44;;;;;;;3.33;1.70;;;11.00;99.90;;;;;;5090949;28;20560;-75
2021/03/27 03:15:20;;;;;;;;;;;10.90;99.80;;;;;;5091323;28;20142;-76
2021/03/27 03:17:55;;;;;;;3.30;1.60;;;10.80;99.90;;;;;;5098228;28;19920;-76
2021/03/27 03:20:28;;;;;;;;;;;10.70;99.90;;;;;;5100760;28;20087;-76
2021/03/27 03:23:06;;;;;;;4.18;2.10;;;10.70;99.90;;;;;;5096261;28;19942;-76
2021/03/27 03:25:44;;;;;;;3.45;1.70;;;10.70;99.90;;;;;;5104376;28;20079;-76
2021/03/27 03:28:26;;;;;;;4.03;2.00;;;10.70;99.90;;;;;;5100416;28;20127;-75
2021/03/27 03:31:12;;;;;;;4.10;1.85;;;10.70;99.90;;;;;;5102667;28;20097;-75
2021/03/27 03:34:04;;;;;;;3.10;1.63;;;10.70;99.60;;;;;;5102352;28;20104;-75
2021/03/27 03:36:46;;;;;;;3.78;1.77;;;10.60;99.90;;;;;;5103634;28;20522;-76
2021/03/27 03:39:30;;;;;;;4.28;1.67;;;10.70;99.90;;;;;;5065169;28;20083;-76
2021/03/27 03:42:07;;;;;;;3.63;1.55;;;10.70;99.90;;;;;;5066559;28;20135;-76
2021/03/27 03:44:53;;;;;;;4.53;1.80;;;10.70;99.30;;;;;;5080321;28;20205;-76
2021/03/27 03:47:32;;;;;;;3.17;1.48;;;10.60;99.40;;;;;;5069445;28;20068;-76
2021/03/27 03:50:15;;;;;;;4.10;1.63;;;10.70;99.30;;;;;;5102235;28;20078;-76
2021/03/27 03:53:16;;;;;;;4.30;1.67;;;10.70;99.00;;;;;;5101717;28;20075;-75
2021/03/27 03:55:59;;;;;;;3.53;1.40;;;10.70;98.90;;;;;;5080686;28;20047;-75
2021/03/27 03:58:45;;;;;;;3.33;1.58;;;10.70;98.70;;;;;;5093072;28;20489;-74
2021/03/27 04:01:22;;;;;;;3.90;1.42;;;10.80;98.50;;;;;;5075641;28;20134;-74
2021/03/27 04:03:57;;;;;;;4.05;1.65;;;10.70;98.80;;;;;;5094027;28;20139;-73
2021/03/27 04:06:28;;;;;;;3.83;1.80;;;10.60;98.90;;;;;;5093742;28;20127;-74
2021/03/27 04:09:01;;;;;;;3.95;1.73;;;10.80;98.40;;;;;;5093736;28;20107;-74
2021/03/27 04:12:03;;;;;;;3.40;1.77;;;10.80;98.60;;;;;;5096292;28;20130;-74
2021/03/27 04:15:01;;;;;;;3.20;1.70;;;10.80;98.80;;;;;;5090794;28;20059;-73
2021/03/27 04:17:40;;;;;;;3.35;1.20;;;10.70;98.10;;;;;;5078131;28;20052;-74
2021/03/27 04:20:13;;;;;;;2.30;0.88;;;10.40;97.70;;;;;;5094444;28;20135;-74
2021/03/27 04:22:46;;;;;;;4.32;0.90;;;10.00;98.40;;;;;;5094643;28;20127;-74
2021/03/27 04:25:31;;;;;;;2.40;0.93;;;9.80;99.20;;;;;;5093196;28;20127;-73
2021/03/27 04:28:05;;;;;;;2.78;0.90;;;9.50;99.90;;;;;;5094026;28;20134;-73
2021/03/27 04:30:49;;;;;;;2.70;0.90;;;9.40;99.70;;;;;;5096563;28;20512;-74
2021/03/27 04:33:33;;;;;;;3.22;0.90;;;9.20;99.90;;;;;;5097160;28;20044;-74
2021/03/27 04:36:08;;;;;;;2.15;0.90;;;9.00;99.90;;;;;;5097122;28;20162;-74
2021/03/27 04:38:43;;;;;;;2.45;0.82;;;8.90;99.90;;;;;;5096508;28;20127;-74
2021/03/27 04:41:22;;;;;;;;;;;9.00;99.90;;;;;;5096948;28;20560;-74
2021/03/27 04:43:56;;;;;;;1.98;0.68;;;8.90;99.90;;;;;;5096659;28;20010;-74
2021/03/27 04:46:30;;;;;;;1.27;0.57;;;9.00;99.90;;;;;;5096715;28;20150;-73
2021/03/27 04:49:09;;;;;;;1.60;0.70;;;8.90;99.90;;;;;;5096025;28;20139;-74
2021/03/27 04:51:49;;;;;;;3.05;0.60;;;8.90;99.90;;;;;;5096593;28;20135;-74
2021/03/27 04:54:46;;;;;;;1.38;0.60;;;8.90;99.90;;;;;;5096467;28;20047;-74
2021/03/27 04:57:30;;;;;;;2.35;0.50;;;9.00;99.90;;;;;;5077844;28;20048;-74
2021/03/27 05:00:25;;;;;;;1.48;0.50;;;9.00;99.80;;;;;;5096462;28;20135;-74
2021/03/27 05:03:09;;;;;;;1.95;0.50;;;9.00;99.40;;;;;;5071560;28;20056;-74
2021/03/27 05:05:53;;;;;;;1.15;0.50;;;9.00;98.40;;;;;;5096173;28;20048;-74
2021/03/27 05:08:38;;;;;;;1.08;0.40;;;9.00;97.60;;;;;;5092206;28;20086;-74
2021/03/27 05:11:22;;;;;;;2.13;0.60;;;8.90;97.00;;;;;;5103015;28;20076;-73
2021/03/27 05:14:01;;;;;;;2.30;0.75;;;8.80;98.00;;;;;;5097300;28;20202;-73
2021/03/27 05:16:33;;;;;;;1.50;0.40;;;8.80;98.10;;;;;;5088008;28;20086;-73
2021/03/27 05:19:06;;;;;;;2.00;0.60;;;8.60;98.10;;;;;;5097683;28;20510;-74
2021/03/27 05:21:54;;;;;;;0.65;0.30;;;8.70;98.50;;;;;;5096304;28;20130;-74
2021/03/27 05:24:32;;;;;;;1.95;0.50;;;8.60;99.10;;;;;;5095858;28;20052;-74
2021/03/27 05:27:20;;;;;;;2.85;0.77;;;8.70;99.40;;;;;;5095349;28;20512;-74
2021/03/27 05:30:00;;;;;;;1.55;0.65;;;8.80;99.30;;;;;;5095689;28;20048;-74
2021/03/27 05:32:53;;;;;;;1.23;0.40;;;8.80;98.70;;;;;;5086310;28;20048;-74
2021/03/27 05:35:35;;;;;;;1.23;0.50;;;8.80;99.10;;;;;;5098040;28;20521;-73
2021/03/27 05:38:16;;;;;;;1.60;0.68;;;8.80;99.50;;;;;;5077534;28;20123;-73
2021/03/27 05:41:28;;;;;;;2.80;0.60;;;8.80;99.20;;;;;;5093829;28;20146;-73
2021/03/27 05:44:44;;;;;;;1.27;0.57;;;8.90;97.30;;;;;;5077346;28;20106;-73
2021/03/27 05:48:14;;;;;;;1.20;0.50;;;8.90;97.30;;;;;;5079880;28;20495;-73
2021/03/27 05:51:40;;;;;;;1.88;0.40;;;8.90;96.50;;;;;;5047860;28;20569;-74
2021/03/27 05:55:10;;;;;;;1.30;0.40;;;8.80;96.90;;;;;;5093706;28;20119;-74
2021/03/27 05:58:27;;;;;;;0.63;0.28;;;8.80;95.90;;;;;;5080608;28;20069;-74
2021/03/27 06:01:07;;;;;;;1.30;0.43;;;8.70;96.20;;;;;;5079316;28;20078;-74
2021/03/27 06:04:09;;;;;;;2.53;0.40;;;8.70;95.80;;;;;;5105668;28;20139;-73
2021/03/27 06:07:33;;;;;;;0.68;0.20;;;8.70;96.20;;;;;;5097644;28;20079;-74
2021/03/27 06:10:40;;;;;;;0.25;0.17;;;8.60;95.70;;;;;;5079936;28;20076;-73
2021/03/27 06:13:24;;;;;;;0.50;0.22;;;8.50;96.40;;;;;;5085444;28;20048;-74
2021/03/27 06:16:36;;;;;;;1.30;0.22;;;8.50;96.40;;;;;;5078531;28;20083;-74
2021/03/27 06:19:49;;;;;;;0.45;0.22;;;8.50;95.70;;;;;;5073911;28;20048;-74
2021/03/27 06:23:00;;;;;;;0.82;0.30;;;8.40;95.70;;;;;;5105432;28;20131;-74
2021/03/27 06:28:26;;;;;;;2.40;0.60;;;8.20;94.60;;;;;;4930884;23;20300;-87
2021/03/27 06:31:47;;;;;;;1.08;0.43;;;8.10;95.50;;;;;;5035828;28;20127;-89
2021/03/27 06:34:49;;;;;;;1.05;0.30;;;8.20;95.20;;;;;;5036128;28;20128;-87
2021/03/27 06:37:44;;;;;;;1.27;0.30;;;8.20;95.20;;;;;;5021581;28;20050;-88
2021/03/27 06:40:55;;;;;;;0.93;0.40;;;8.10;95.70;;;;;;5034814;28;20374;-83
2021/03/27 06:43:58;;;;;;;0.75;0.35;;;8.20;95.50;;;;;;5007508;28;20117;-89
2021/03/27 06:47:12;;;;;;;1.73;0.45;;;8.30;95.00;;;;;;5026000;28;20077;-82
2021/03/27 06:50:05;;;;;;;0.60;0.25;;;8.30;95.80;;;;;;5002689;28;20069;-84
2021/03/27 06:53:28;;;;;;;0.95;0.40;;;8.50;94.20;;;;;;5031476;28;20057;-80
2021/03/27 06:56:30;;;;;;;1.52;0.40;;;8.50;94.30;;;;;;4974630;28;20051;-82
2021/03/27 06:59:25;;;;;;;1.95;0.43;;;8.50;95.00;;;;;;5035097;28;20130;-80
2021/03/27 07:02:31;;;;;;;1.00;0.50;;;8.50;93.90;;;;;;5034637;28;20080;-81
2021/03/27 07:05:54;;;;;;;0.73;0.30;;;8.50;94.30;;;;;;5034793;28;20158;-81
2021/03/27 07:08:34;;;;;;;;;;;8.50;94.80;;;;;;5034525;28;20060;-79
2021/03/27 07:11:40;;;;;;;1.17;0.40;;;8.50;94.00;;;;;;5100746;22;20185;-79
2021/03/27 07:14:45;;;;;;;1.63;0.50;;;8.50;95.10;;;;;;5052764;28;20080;-78
2021/03/27 07:17:36;;;;;;;1.77;0.77;;;8.60;93.60;;;;;;5035503;28;20076;-80
2021/03/27 07:21:04;;;;;;;2.22;0.80;;;8.50;94.10;;;;;;5053314;28;20073;-81
2021/03/27 07:24:04;;;;;;;0.90;0.50;;;8.30;94.50;;;;;;5050929;28;20490;-87
2021/03/27 07:27:15;;;;;;;1.85;0.60;;;8.10;94.70;;;;;;5035825;28;20510;-88
2021/03/27 07:30:12;;;;;;;1.35;0.50;;;8.00;94.90;;;;;;5036457;28;20101;-86
2021/03/27 07:33:06;;;;;;;2.20;0.60;;;7.90;95.40;;;;;;5036070;28;20077;-87
2021/03/27 07:36:12;;;;;;;1.95;0.60;;;7.90;95.00;;;;;;5036132;28;20096;-86
2021/03/27 07:38:48;;;;;;;2.38;0.60;;;7.90;95.60;;;;;;5003459;28;20113;-88
2021/03/27 07:41:51;;;;;;;2.38;0.95;;;7.90;96.30;;;;;;5037137;28;20053;-90
2021/03/27 07:44:40;;;;;;;2.97;0.70;;;8.00;95.90;;;;;;5036415;28;20084;-90
2021/03/27 07:47:55;;;;;;;1.60;0.60;;;8.10;95.20;;;;;;5016772;28;20136;-90
2021/03/27 07:50:55;;;;;;;2.28;0.65;;;8.10;94.30;;;;;;4971791;28;20092;-91
2021/03/27 07:53:58;;;;;;;1.95;0.73;;;8.20;93.80;;;;;;5019318;28;20092;-91
2021/03/27 07:56:43;;;;;;;2.47;0.60;;;8.20;93.30;;;;;;5036532;28;20049;-89
2021/03/27 08:00:00;;;;;;;;;;;8.20;93.50;;;;;;5036555;28;20432;-92
2021/03/27 08:02:51;;;;;;;2.33;0.60;;;8.20;93.00;;;;;;4955791;28;20414;-90
2021/03/27 08:05:57;;;;;;;4.28;0.70;;;8.20;92.90;;;;;;4956340;29;20078;-91
2021/03/27 08:09:12;;;;;;;2.65;0.60;;;8.20;93.00;;;;;;5026049;28;20109;-89
2021/03/27 08:12:24;;;;;;;1.55;0.77;;;8.30;91.70;;;;;;5036502;28;20092;-90
2021/03/27 08:15:18;;;;;;;2.30;0.70;;;8.50;90.70;;;;;;5003652;28;20091;-87
2021/03/27 08:18:03;;;;;;;2.15;0.70;;;8.50;90.90;;;;;;5035307;28;20087;-89
2021/03/27 08:20:58;;;;;;;2.25;0.70;;;8.60;90.30;;;;;;5018671;28;20471;-87
2021/03/27 08:23:41;;;;;;;2.65;0.60;;;8.60;86.30;;;;;;5034735;28;20061;-90
2021/03/27 08:26:42;;;;;;;0.95;0.45;;;8.60;87.00;;;;;;5034918;28;20075;-90
2021/03/27 08:30:05;;;;;;;2.05;0.60;;;8.50;88.10;;;;;;5036064;28;20077;-89
2021/03/27 08:33:08;;;;;;;2.85;0.63;;;8.60;82.00;;;;;;5019821;28;20145;-90
2021/03/27 08:36:08;;;;;;;3.03;0.77;;;8.60;81.80;;;;;;5034614;28;20092;-88
2021/03/27 08:39:12;;;;;;;2.22;0.70;;;8.50;81.20;;;;;;5034552;28;20580;-88
2021/03/27 08:42:02;;;;;;;1.58;0.50;;;8.50;79.90;;;;;;5005380;28;20483;-88
2021/03/27 08:44:52;;;;;;;2.60;0.70;;;8.60;75.50;;;;;;5034051;28;20582;-90
2021/03/27 08:47:47;;;;;;;3.97;0.77;;;8.60;76.60;;;;;;5034507;28;20041;-87
2021/03/27 08:51:05;;;;;;;1.75;0.52;;;8.60;76.60;;;;;;5046062;28;20132;-84
2021/03/27 08:53:58;;;;;;;5.68;0.95;;;8.70;73.20;;;;;;4991569;28;20097;-79
2021/03/27 08:57:34;;;;;;;2.47;0.50;;;8.70;71.00;;;;;;5049713;28;20136;-81
2021/03/27 09:00:46;;;;;;;2.38;0.40;;;8.60;70.80;;;;;;5003312;28;20512;-82
2021/03/27 09:04:01;;;;;;;1.60;0.50;;;8.50;68.30;;;;;;5035939;28;20049;-80
2021/03/27 09:06:58;;;;;;;1.80;0.43;;;8.60;70.40;;;;;;5052235;28;20052;-79
2021/03/27 09:09:56;;;;;;;4.05;0.63;;;8.60;70.40;;;;;;5052379;28;20521;-81
2021/03/27 09:12:58;;;;;;;2.97;0.75;;;8.60;71.70;;;;;;5052281;28;20053;-81
2021/03/27 09:16:37;;;;;;;1.42;0.68;;;8.70;73.80;;;;;;5054361;28;20127;-79
2021/03/27 09:19:52;;;;;;;2.78;0.60;;;8.70;68.20;;;;;;5056187;28;20056;-81
2021/03/27 09:23:06;;;;;;;1.23;0.32;;;8.70;71.70;;;;;;5051170;28;20057;-81
2021/03/27 09:26:06;;;;;;;6.53;1.98;;;8.60;72.80;;;;;;5054544;28;20136;-80
2021/03/27 09:28:41;;;;;;;2.25;0.70;;;8.70;71.00;;;;;;5051558;28;20072;-79
2021/03/27 09:32:09;;;;;;;1.25;0.50;;;8.70;69.80;;;;;;5053055;28;20077;-79
2021/03/27 09:35:23;;;;;;;1.85;0.40;;;8.90;67.30;;;;;;4978796;28;20078;-80
2021/03/27 09:38:18;;;;;;;2.83;0.70;;;9.10;66.10;;;;;;4976532;28;20046;-80
2021/03/27 09:41:14;;;;;;;2.17;0.55;;;9.20;67.00;;;;;;5051387;28;20049;-80
2021/03/27 09:44:11;;;;;;;2.75;0.50;;;9.30;63.50;;;;;;5022251;28;20423;-84
2021/03/27 09:46:49;;;;;;;2.08;0.50;;;9.40;60.90;;;;;;5052274;28;20126;-82
2021/03/27 09:49:31;;;;;;;2.97;0.85;;;9.40;61.00;;;;;;5051002;28;20068;-82
2021/03/27 09:52:41;;;;;;;3.35;0.70;;;9.40;62.80;;;;;;5035582;28;20049;-81
2021/03/27 09:55:37;;;;;;;2.72;0.52;;;9.60;61.40;;;;;;5028836;28;20098;-80
2021/03/27 09:58:27;;;;;;;1.83;0.60;;;9.70;59.80;;;;;;5038679;28;20078;-81
2021/03/27 10:01:26;;;;;;;2.45;0.60;;;9.60;61.50;;;;;;5052152;28;20049;-84
2021/03/27 10:04:12;;;;;;;2.67;0.65;;;9.70;63.00;;;;;;5036772;28;20080;-82
2021/03/27 10:07:15;;;;;;;3.22;0.65;;;9.80;61.80;;;;;;5050703;28;20081;-81
2021/03/27 10:10:16;;;;;;;2.80;0.63;;;9.90;63.70;;;;;;5036396;28;20136;-81
2021/03/27 10:12:58;;;;;;;1.80;0.50;;;9.90;62.80;;;;;;5050567;28;20451;-83
2021/03/27 10:15:34;;;;;;;2.33;0.60;;;9.90;60.40;;;;;;5050408;28;20052;-81
2021/03/27 10:18:09;;;;;;;1.90;0.60;;;9.80;62.10;;;;;;5051626;28;20179;-83
2021/03/27 10:20:45;;;;;;;2.65;0.68;;;9.90;62.50;;;;;;5051662;28;20056;-81
2021/03/27 10:23:31;;;;;;;1.92;0.50;;;10.10;61.00;;;;;;5051231;28;20056;-82
2021/03/27 10:26:23;;;;;;;2.35;0.55;;;10.20;57.60;;;;;;5038234;28;20056;-84
2021/03/27 10:28:55;;;;;;;2.67;0.63;;;10.20;57.70;;;;;;5041150;28;20057;-81
2021/03/27 10:31:29;;;;;;;1.05;0.50;;;10.30;59.20;;;;;;5049346;28;20053;-81
2021/03/27 10:34:18;;;;;;;1.88;0.50;;;10.30;60.10;;;;;;5051351;28;20045;-84
2021/03/27 10:36:52;;;;;;;1.75;0.50;;;10.40;58.00;;;;;;5050037;28;20534;-79
2021/03/27 10:39:41;;;;;;;1.35;0.52;;;10.50;54.00;;;;;;5051799;28;20139;-81
2021/03/27 10:42:36;;;;;;;1.67;0.50;;;10.30;51.90;;;;;;5050951;28;20049;-77
2021/03/27 10:45:36;;;;;;;2.08;0.63;;;10.30;51.50;;;;;;5037871;28;20482;-84
2021/03/27 10:48:25;;;;;;;1.27;0.38;;;10.40;52.20;;;;;;5017428;28;20095;-81
2021/03/27 10:51:12;;;;;;;1.83;0.55;;;10.50;49.70;;;;;;5047606;28;20486;-78
2021/03/27 10:53:57;;;;;;;1.63;0.68;;;10.70;49.60;;;;;;5050122;28;20502;-80
2021/03/27 10:57:08;;;;;;;3.38;0.60;;;10.70;48.20;;;;;;5032555;28;20049;-80
2021/03/27 10:59:42;;;;;;;2.60;0.93;;;10.70;50.60;;;;;;5049797;28;20552;-80
2021/03/27 11:02:51;;;;;;;1.73;0.50;;;10.70;50.30;;;;;;5049578;28;20052;-80
2021/03/27 11:06:05;;;;;;;1.20;0.50;;;10.70;49.00;;;;;;5034304;28;20056;-80
2021/03/27 11:09:28;;;;;;;2.22;0.70;;;10.70;49.70;;;;;;5026115;28;20132;-80
2021/03/27 11:12:19;;;;;;;1.95;0.60;;;10.90;51.00;;;;;;5045556;28;20055;-79
2021/03/27 11:15:46;;;;;;;1.50;0.60;;;10.90;47.40;;;;;;5053639;28;20124;-80
2021/03/27 11:18:52;;;;;;;2.33;0.50;;;10.80;47.60;;;;;;5069604;28;20504;-77
2021/03/27 11:22:02;;;;;;;2.50;0.70;;;10.70;47.50;;;;;;5067258;28;20053;-81
2021/03/27 11:24:43;;;;;;;3.10;0.75;;;10.60;48.50;;;;;;5069821;28;20132;-82
2021/03/27 11:27:54;;;;;;;1.75;0.50;;;10.70;49.70;;;;;;5069005;28;20064;-81
2021/03/27 11:30:38;;;;;;;1.75;0.60;;;10.70;46.90;;;;;;5065706;28;20076;-81
2021/03/27 11:33:25;;;;;;;2.28;0.68;;;10.60;49.70;;;;;;5070569;28;20136;-83
2021/03/27 11:36:05;;;;;;;2.72;0.60;;;10.50;51.30;;;;;;5070025;28;20055;-82
2021/03/27 11:38:38;;;;;;;3.10;0.60;;;10.50;50.60;;;;;;5072488;28;20098;-84
2021/03/27 11:41:13;;;;;;;3.25;0.70;;;10.50;51.50;;;;;;5071306;28;20147;-81
2021/03/27 11:43:52;;;;;;;2.97;0.90;;;10.50;53.10;;;;;;5070102;28;20159;-79
2021/03/27 11:46:28;;;;;;;3.80;0.95;;;10.60;54.10;;;;;;5060169;28;20076;-78
2021/03/27 11:49:05;;;;;;;2.60;0.60;;;10.70;51.20;;;;;;5069480;28;20501;-80
2021/03/27 11:51:41;;;;;;;2.05;0.82;;;10.70;49.20;;;;;;5070260;28;20044;-81
2021/03/27 11:54:21;;;;;;;2.00;0.60;;;10.60;50.30;;;;;;5069543;28;20095;-81
2021/03/27 11:57:17;;;;;;;3.47;0.70;;;10.60;50.80;;;;;;5069136;28;20549;-79
2021/03/27 12:02:55;;;;;;;1.55;0.57;;;10.70;50.70;;;;;;5066700;28;20059;-78
2021/03/27 12:05:36;;;;;;;2.28;0.70;;;10.80;48.20;;;;;;5068499;28;20398;-80
2021/03/27 12:08:18;;;;;;;2.63;0.60;;;10.70;48.30;;;;;;5068879;28;20131;-83
2021/03/27 12:11:01;;;;;;;2.83;0.60;;;10.70;49.40;;;;;;5069971;28;20151;-85
2021/03/27 12:13:39;;;;;;;2.28;0.57;;;10.70;50.00;;;;;;5071625;28;20132;-86
2021/03/27 12:16:18;;;;;;;1.92;0.60;;;10.80;50.90;;;;;;5072372;28;20057;-87
2021/03/27 12:19:15;;;;;;;3.42;0.80;;;11.00;48.60;;;;;;5070528;28;20106;-81
2021/03/27 12:21:51;;;;;;;3.65;0.90;;;11.10;49.10;;;;;;5068263;28;20067;-78
2021/03/27 12:24:28;;;;;;;3.10;1.00;;;11.20;47.30;;;;;;5068108;28;20112;-79
2021/03/27 12:27:03;;;;;;;2.58;0.60;;;11.30;47.20;;;;;;5068384;28;20045;-79
2021/03/27 12:29:41;;;;;;;2.40;0.65;;;11.40;47.10;;;;;;5062500;28;20509;-79
2021/03/27 12:32:41;;;;;;;2.67;0.80;;;11.40;47.10;;;;;;5062340;28;20131;-81
2021/03/27 12:35:31;;;;;;;3.15;0.80;;;11.40;47.70;;;;;;5068042;28;20485;-81
2021/03/27 12:38:33;;;;;;;2.13;0.70;;;11.30;48.70;;;;;;5067882;28;20508;-81
2021/03/27 12:41:07;;;;;;;1.83;0.68;;;11.20;47.60;;;;;;5069518;28;20052;-81
2021/03/27 12:43:44;;;;;;;2.17;0.60;;;11.00;47.10;;;;;;5069671;28;20484;-80
2021/03/27 12:46:47;;;;;;;2.72;0.80;;;10.90;48.30;;;;;;5069110;28;20076;-80
2021/03/27 12:50:16;;;;;;;3.88;0.73;;;10.90;47.80;;;;;;5027105;28;20144;-81
2021/03/27 12:53:20;;;;;;;2.95;0.80;;;10.90;48.00;;;;;;5023919;28;20110;-79
2021/03/27 12:56:08;;;;;;;2.08;0.88;;;11.20;48.70;;;;;;5072850;28;20079;-79
2021/03/27 12:58:47;;;;;;;1.98;0.70;;;11.50;48.50;;;;;;5065398;28;20059;-79
2021/03/27 13:01:43;;;;;;;2.92;0.73;;;11.80;46.30;;;;;;5071627;28;20495;-79
2021/03/27 13:05:03;;;;;;;3.60;0.80;;;12.00;45.50;;;;;;5071573;28;20041;-79
2021/03/27 13:07:38;;;;;;;3.58;0.75;;;11.90;44.10;;;;;;5070404;28;20124;-79
2021/03/27 13:10:27;;;;;;;2.47;0.88;;;11.90;44.60;;;;;;5071981;28;20394;-79
2021/03/27 13:13:44;;;;;;;2.53;0.80;;;11.90;45.20;;;;;;5054912;28;20450;-81
2021/03/27 13:16:19;;;;;;;1.98;0.68;;;11.70;45.70;;;;;;5045479;28;20049;-80
2021/03/27 13:19:15;;;;;;;3.88;1.00;;;11.70;44.70;;;;;;5052123;28;20096;-80
2021/03/27 13:22:06;;;;;;;3.50;1.00;;;11.60;45.70;;;;;;5052640;28;20061;-80
2021/03/27 13:25:03;;;;;;;3.67;1.00;;;11.50;45.20;;;;;;5052321;28;20517;-79
2021/03/27 13:27:43;;;;;;;4.18;1.13;;;11.50;46.40;;;;;;5052231;28;20135;-80
2021/03/27 13:30:22;;;;;;;3.80;1.25;;;11.40;46.10;;;;;;5032347;28;20091;-82
2021/03/27 13:33:01;;;;;;;2.10;0.85;;;11.50;46.90;;;;;;5050539;28;20168;-84
2021/03/27 13:35:57;;;;;;;3.97;0.80;;;11.50;46.50;;;;;;5040020;28;20103;-82
2021/03/27 13:38:32;;;;;;;2.42;0.70;;;11.50;46.80;;;;;;5048861;28;20521;-82
2021/03/27 13:41:08;;;;;;;3.10;0.88;;;11.50;47.10;;;;;;5046781;28;20649;-81
2021/03/27 13:43:47;;;;;;;4.80;1.80;;;11.40;45.70;;;;;;5051998;28;20041;-82
2021/03/27 13:46:21;;;;;;;4.80;1.75;;;11.40;45.80;;;;;;5051991;28;20124;-80
2021/03/27 13:48:54;;;;;;;3.80;1.02;;;11.40;46.30;;;;;;5051727;28;20055;-78
2021/03/27 13:51:30;;;;;;;2.63;0.73;;;11.40;46.30;;;;;;5051227;28;20457;-82
2021/03/27 13:54:14;;;;;;;2.50;0.82;;;11.60;46.00;;;;;;5051441;28;20414;-80
2021/03/27 13:56:49;;;;;;;3.20;0.90;;;11.60;47.30;;;;;;5052061;28;20215;-82
2021/03/27 13:59:52;;;;;;;2.90;0.93;;;11.60;45.70;;;;;;5052373;28;20487;-80
2021/03/27 14:02:57;;;;;;;4.35;0.80;;;11.60;46.50;;;;;;5016987;28;20061;-88
2021/03/27 14:05:44;;;;;;;2.88;0.70;;;12.00;45.70;;;;;;5050889;28;20136;-88
2021/03/27 14:09:07;;;;;;;2.65;0.80;;;12.50;45.60;;;;;;5054762;28;20083;-82
2021/03/27 14:11:48;;;;;;;3.58;1.00;;;13.10;45.30;;;;;;5028251;28;20061;-78
2021/03/27 14:14:21;;;;;;;2.95;1.00;;;13.40;43.20;;;;;;5054698;28;20087;-77
2021/03/27 14:17:16;;;;;;;3.28;0.82;;;13.20;42.20;;;;;;5040548;28;20079;-78
2021/03/27 14:20:07;;;;;;;3.70;0.93;;;12.90;43.80;;;;;;5051670;28;20482;-79
2021/03/27 14:23:15;;;;;;;3.03;0.70;;;12.60;43.40;;;;;;5038481;28;20079;-77
2021/03/27 14:25:54;;;;;;;4.72;0.93;;;12.40;43.10;;;;;;5054277;28;20088;-81
2021/03/27 14:28:26;;;;;;;3.47;0.60;;;12.20;44.40;;;;;;5053752;28;20069;-79
2021/03/27 14:31:12;;;;;;;3.55;0.77;;;12.10;44.70;;;;;;5054027;28;20133;-80
2021/03/27 14:34:19;;;;;;;2.35;0.80;;;12.00;44.80;;;;;;5043882;28;20068;-79
2021/03/27 14:37:03;;;;;;;3.83;0.85;;;12.00;44.70;;;;;;5044641;28;20088;-83
2021/03/27 14:39:42;;;;;;;;;;;11.80;45.30;;;;;;5050605;28;20132;-79
2021/03/27 14:42:34;;;;;;;3.00;0.77;;;11.60;45.90;;;;;;5050521;28;19999;-80
2021/03/27 14:45:16;;;;;;;3.47;1.02;;;11.60;46.60;;;;;;5044078;28;20055;-81
2021/03/27 17:49:31;;;;;;;4.83;1.47;;;10.50;48.70;;;;;;5199518;23;20404;-83
2021/03/27 17:52:03;;;;;;;4.90;1.20;;;10.50;48.30;;;;;;4933522;29;20067;-85